Terminal Aerodrome Forecast
Issued by NWS

Home | Current Version | Previous Version | Text Only | Print | Product List | Glossary On
Versions: 1 2 3 4 5 6 7 8 9 10 11 12 13 14 15 16
000
FTAK31 PANC 232322
TAFATK
TAF
PATK 232322Z 2400/2424 20011KT P6SM VCSH SCT030 BKN050
     FM240300 19005KT P6SM SCT050 BKN100
     FM241500 VRB04KT 5SM -RA BKN015 OVC025=

USA.gov is the U.S. government's official web portal to all federal, state and local government web resources and services.